METAR Data
IDs: Format: Raw Decoded Include TAF

Data at: 1206 UTC 16 Oct 2018

PAJC 161157Z AUTO 16007KT 8SM -RA FEW032 BKN050 OVC085 09/06 A2907 RMK AO2 SLP843 P0001 60001 70005 T00890056 10117 20089 53007
PAJC 160957Z AUTO 09004KT 10SM -RA BKN035 OVC050 09/06 A2905 RMK AO2 SLP838 P0000 T00890061
PAJC 160757Z AUTO 10008KT 10SM -RA OVC036 11/06 A2904 RMK AO2 RAB23 SLP833 P0000 T01110056 401170100
PAJC 160657Z AUTO 14009KT 10SM BKN038 OVC047 11/05 A2902 RMK AO2 RAE49 SLP827 P0000 T01110050
PAJC 160457Z AUTO 12011G17KT 080V140 10SM -RA FEW027 OVC034 11/07 A2900 RMK AO2 SLP820 P0000 T01060067
PAJC 160357Z AUTO VRB06G17KT 10SM -RA BKN032 OVC039 11/06 A2899 RMK AO2 SLP819 P0000 T01110056
PAJC 160225Z AUTO 15010G18KT 10SM -RA BKN030 OVC036 11/07 A2898 RMK AO2 P0000
PAJC 160216Z AUTO 14010G20KT 10SM -RA FEW022 BKN028 OVC034 11/07 A2897 RMK AO2 P0000
PAJC 160157Z AUTO 13010G22KT 7SM -RA FEW022 BKN030 OVC039 11/07 A2897 RMK AO2 PK WND 19032/0108 SLP811 P0000 T01060072
PAJC 160131Z AUTO 13011G27KT 100V180 7SM -RA FEW009 BKN030 OVC036 11/07 A2897 RMK AO2 PK WND 19032/0108 P0000
PAJC 160126Z AUTO 14009G27KT 5SM -RA FEW009 BKN028 OVC040 11/08 A2897 RMK AO2 PK WND 19032/0108 P0000
PAJC 160120Z AUTO 14010G24KT 090V180 6SM -RA FEW021 BKN035 OVC044 11/07 A2898 RMK AO2 PK WND 19032/0108 P0000
PAJC 160108Z AUTO 14017G32KT 110V190 8SM -RA SCT023 BKN029 OVC043 11/07 A2897 RMK AO2 PK WND 19032/0108 P0000
PAJC 160105Z AUTO 15014G26KT 100V180 8SM -RA FEW020 BKN032 OVC040 11/07 A2897 RMK AO2 PK WND 15026/0105 P0000
PAJC 160102Z AUTO 14014G24KT 8SM -RA SCT022 BKN028 OVC042 11/07 A2898 RMK AO2 P0000
PAJC 160059Z AUTO 14017G25KT 9SM -RA FEW022 BKN034 OVC045 11/07 A2898 RMK AO2 PK WND 15033/0044 SLP813 P0000 T01060072
PAJC 160057Z AUTO 13015G25KT 7SM -RA FEW022 BKN034 OVC045 11/07 A2897 RMK AO2 PK WND 15033/0044 P0000
PAJC 160005Z AUTO 14016G27KT 7SM -RA FEW009 BKN025 OVC033 11/08 A2899 RMK AO2 PK WND 13027/2358 P0000
PAJC 152357Z AUTO 13014G26KT 8SM -RA FEW012 BKN022 OVC032 11/07 A2900 RMK AO2 PK WND 16036/2304 SLP819 P0000 60002 T01060072 10117 20106 58010
PAJC 152344Z AUTO 13020G28KT 10SM -RA BKN025 OVC035 11/07 A2900 RMK AO2 PK WND 16036/2304 P0000
PAJC 152257Z AUTO 16011G30KT 100V200 10SM -RA FEW025 BKN031 OVC050 11/07 A2901 RMK AO2 PK WND 16030/2255 SLP824 P0000 T01110067
PAJC 152234Z AUTO 16018G26KT 6SM -RA SCT026 BKN036 OVC050 11/07 A2901 RMK AO2 PK WND 13029/2222 P0000
PAJC 152225Z AUTO 14016G29KT 090V170 5SM -RA FEW012 BKN026 OVC035 11/07 A2902 RMK AO2 PK WND 13029/2222 P0000
PAJC 152222Z AUTO 13021G29KT 7SM -RA FEW015 BKN030 OVC041 11/07 A2901 RMK AO2 PK WND 13029/2222 P0000
PAJC 152157Z AUTO 13017G28KT 10SM -RA FEW017 BKN022 OVC032 11/07 A2902 RMK AO2 PK WND 16035/2058 RAE04B26 SLP828 P0000 T01110072
PAJC 151957Z AUTO 14012G30KT 100V180 10SM FEW017 BKN023 OVC029 11/07 A2904 RMK AO2 PK WND 08030/1950 RAE15B35E46 SLP833 P0000 T01110072
PAJC 151945Z AUTO 11016G29KT 080V140 10SM -RA SCT020 BKN028 OVC041 11/08 A2903 RMK AO2 PK WND 10029/1945 RAE15B35 P0000
PAJC 151848Z AUTO 13015G23KT 10SM FEW020 SCT027 OVC036 11/07 A2905 RMK AO2 PK WND 10044/1809 RAE41 P0001
PAJC 151757Z AUTO 12019G40KT 080V150 9SM -RA SCT017 BKN021 OVC033 11/08 A2903 RMK AO2 PK WND 10040/1752 SLP831 P0002 60002 T01110083 10111 20106 56015
PAJC 151657Z AUTO 14012G30KT 10SM -RA SCT016 BKN024 OVC055 11/08 A2904 RMK AO2 PK WND 17033/1645 SLP835 P0000 T01110083
PAJC 151557Z AUTO 10017G22KT 10SM -RA BKN018 OVC023 11/08 A2906 RMK AO2 PK WND 10029/1515 SLP842 P0000 T01060083
PAJC 151457Z AUTO 10013G23KT 10SM -RA OVC016 11/08 A2908 RMK AO2 RAE1359B37 SLP847 P0000 60000 T01060083 58019
PAJC 151357Z AUTO 10014G22KT 070V140 10SM -RA BKN017 OVC023 11/08 A2910 RMK AO2 RAB40 SLP854 P0000 T01060078
PAJC 151257Z AUTO 10010G20KT 10SM OVC017 11/08 A2912 RMK AO2 SLP861 T01060078
PAJC 151157Z AUTO 11011G22KT 10SM BKN015 OVC019 11/08 A2913 RMK AO2 RAE24 SLP866 P0000 60002 70066 T01060083 10111 20100 58008
PAJC 151116Z AUTO 12014G22KT 080V150 10SM -RA SCT014 BKN020 OVC026 11/08 A2915 RMK AO2 P0000
PAJC 151103Z AUTO 12010G18KT 060V140 10SM -RA BKN014 BKN019 OVC026 10/08 A2915 RMK AO2 P0000
PAJC 151057Z AUTO 13010G18KT 10SM -RA SCT014 BKN021 OVC026 11/08 A2915 RMK AO2 RAB28 P0000
PAJC 151042Z AUTO 13012G20KT 10SM -RA BKN014 OVC021 11/08 A2915 RMK AO2 RAB28 P0000
PAJC 151026Z AUTO 12007KT 10SM SCT016 BKN024 OVC038 11/08 A2916 RMK AO2
PAJC 150957Z AUTO 11010G16KT 10SM BKN036 BKN044 10/07 A2916 RMK AO2 SLP874 T01000072
PAJC 150857Z AUTO VRB05KT 10SM BKN036 11/05 A2917 RMK AO2 SLP877 60002 T01060050 53004
PAJC 150757Z AUTO 13009G16KT 10SM SCT038 11/05 A2917 RMK AO2 RAE29 SLP878 P0000 T01060050 401110089
PAJC 150707Z AUTO 12012G20KT 10SM -RA FEW013 BKN039 OVC047 11/08 A2915 RMK AO2 P0000
PAJC 150657Z AUTO 11013G18KT 10SM -RA SCT019 BKN028 OVC041 10/08 A2915 RMK AO2 PK WND 15027/0606 SLP872 P0002 T01000083
PAJC 150557Z AUTO 10015G26KT 10SM -RA OVC014 11/09 A2916 RMK AO2 PK WND 09026/0554 SLP874 P0003 60058 T01110089 10111 20094 56022
PAJC 150457Z AUTO 09014G25KT 5SM RA BR OVC012 11/09 A2917 RMK AO2 PK WND 08033/0435 SLP880 P0018 T01060089
PAJC 150251Z AUTO 06012G24KT 5SM -RA BR OVC016 09/08 A2923 RMK AO2 PK WND 06030/0237 P0008
PAJC 150207Z AUTO 09012G22KT 6SM -RA BR BKN013 BKN017 OVC025 10/08 A2926 RMK AO2 P0002
PAJC 150157Z AUTO 09013G23KT 4SM RA BR BKN017 BKN023 OVC028 09/07 A2926 RMK AO2 SLP909 P0009 T00940072
PAJC 150122Z AUTO 07014G23KT 2 1/2SM RA BR FEW010 BKN019 OVC030 09/07 A2930 RMK AO2 VIS 1 1/2V4 P0002
PAJC 150057Z AUTO 09013G23KT 050V110 4SM RA BR FEW017 BKN022 OVC028 09/07 A2932 RMK AO2 PK WND 09029/0027 SLP928 P0007 T00890067